sensor_id;sensor_type;location;lat;lon;timestamp;P1;durP1;ratioP1;P2;durP2;ratioP2
34296;SDS011;20564;42.902;25.336;2023-02-22T00:07:09;8.95;;;1.77;;
34296;SDS011;20564;42.902;25.336;2023-02-22T00:10:18;5.30;;;1.83;;
34296;SDS011;20564;42.902;25.336;2023-02-22T00:27:48;3.65;;;1.50;;
34296;SDS011;20564;42.902;25.336;2023-02-22T00:30:30;2.30;;;0.60;;
34296;SDS011;20564;42.902;25.336;2023-02-22T00:33:14;2.20;;;0.70;;
34296;SDS011;20564;42.902;25.336;2023-02-22T00:36:19;4.13;;;1.17;;
34296;SDS011;20564;42.902;25.336;2023-02-22T00:38:54;4.28;;;1.23;;
34296;SDS011;20564;42.902;25.336;2023-02-22T00:41:43;2.75;;;1.50;;
34296;SDS011;20564;42.902;25.336;2023-02-22T00:44:29;2.42;;;0.93;;
34296;SDS011;20564;42.902;25.336;2023-02-22T00:47:37;1.23;;;0.85;;
34296;SDS011;20564;42.902;25.336;2023-02-22T00:50:22;3.28;;;0.88;;
34296;SDS011;20564;42.902;25.336;2023-02-22T00:53:08;5.70;;;1.55;;
34296;SDS011;20564;42.902;25.336;2023-02-22T00:59:08;2.47;;;0.80;;
34296;SDS011;20564;42.902;25.336;2023-02-22T01:01:36;3.17;;;1.17;;
34296;SDS011;20564;42.902;25.336;2023-02-22T01:04:35;2.92;;;0.80;;
34296;SDS011;20564;42.902;25.336;2023-02-22T01:11:44;1.20;;;0.82;;
34296;SDS011;20564;42.902;25.336;2023-02-22T01:14:36;5.03;;;1.17;;
34296;SDS011;20564;42.902;25.336;2023-02-22T01:17:28;3.25;;;0.93;;
34296;SDS011;20564;42.902;25.336;2023-02-22T01:22:54;1.80;;;0.93;;
34296;SDS011;20564;42.902;25.336;2023-02-22T01:25:51;1.73;;;0.95;;
34296;SDS011;20564;42.902;25.336;2023-02-22T01:33:00;3.97;;;1.88;;
34296;SDS011;20564;42.902;25.336;2023-02-22T01:35:38;2.22;;;1.25;;
34296;SDS011;20564;42.902;25.336;2023-02-22T01:38:16;1.83;;;0.90;;
34296;SDS011;20564;42.902;25.336;2023-02-22T01:41:22;3.90;;;0.95;;
34296;SDS011;20564;42.902;25.336;2023-02-22T01:44:28;2.53;;;0.68;;
34296;SDS011;20564;42.902;25.336;2023-02-22T01:47:07;4.97;;;1.95;;
34296;SDS011;20564;42.902;25.336;2023-02-22T01:50:03;2.22;;;0.80;;
34296;SDS011;20564;42.902;25.336;2023-02-22T01:52:44;1.55;;;0.57;;
34296;SDS011;20564;42.902;25.336;2023-02-22T01:55:17;2.28;;;0.85;;
34296;SDS011;20564;42.902;25.336;2023-02-22T01:57:51;3.78;;;1.05;;
34296;SDS011;20564;42.902;25.336;2023-02-22T02:00:43;2.25;;;0.90;;
34296;SDS011;20564;42.902;25.336;2023-02-22T02:03:41;1.50;;;0.70;;
34296;SDS011;20564;42.902;25.336;2023-02-22T02:06:35;3.92;;;1.20;;
34296;SDS011;20564;42.902;25.336;2023-02-22T03:19:04;2.95;;;0.80;;
34296;SDS011;20564;42.902;25.336;2023-02-22T03:34:23;7.35;;;1.00;;
34296;SDS011;20564;42.902;25.336;2023-02-22T03:45:13;1.60;;;0.68;;
34296;SDS011;20564;42.902;25.336;2023-02-22T03:52:02;1.67;;;0.68;;
34296;SDS011;20564;42.902;25.336;2023-02-22T03:55:37;4.95;;;0.75;;
34296;SDS011;20564;42.902;25.336;2023-02-22T03:58:40;2.20;;;1.05;;
34296;SDS011;20564;42.902;25.336;2023-02-22T04:01:41;3.45;;;1.02;;
34296;SDS011;20564;42.902;25.336;2023-02-22T04:04:35;1.60;;;0.52;;
34296;SDS011;20564;42.902;25.336;2023-02-22T04:07:09;2.42;;;0.80;;
34296;SDS011;20564;42.902;25.336;2023-02-22T04:10:00;1.63;;;0.80;;
34296;SDS011;20564;42.902;25.336;2023-02-22T04:13:14;1.92;;;0.95;;
34296;SDS011;20564;42.902;25.336;2023-02-22T04:15:54;2.03;;;0.90;;
34296;SDS011;20564;42.902;25.336;2023-02-22T04:21:25;1.63;;;0.65;;
34296;SDS011;20564;42.902;25.336;2023-02-22T04:23:53;4.25;;;1.20;;
34296;SDS011;20564;42.902;25.336;2023-02-22T04:26:23;2.65;;;0.95;;
34296;SDS011;20564;42.902;25.336;2023-02-22T04:29:18;4.80;;;1.20;;
34296;SDS011;20564;42.902;25.336;2023-02-22T04:31:54;1.67;;;0.95;;
34296;SDS011;20564;42.902;25.336;2023-02-22T04:34:31;4.18;;;2.03;;
34296;SDS011;20564;42.902;25.336;2023-02-22T04:37:14;3.60;;;0.93;;
34296;SDS011;20564;42.902;25.336;2023-02-22T04:40:05;5.95;;;1.75;;
34296;SDS011;20564;42.902;25.336;2023-02-22T04:42:42;5.65;;;2.10;;
34296;SDS011;20564;42.902;25.336;2023-02-22T04:45:08;4.40;;;1.95;;
34296;SDS011;20564;42.902;25.336;2023-02-22T04:47:39;4.35;;;1.60;;
34296;SDS011;20564;42.902;25.336;2023-02-22T04:50:07;4.70;;;1.77;;
34296;SDS011;20564;42.902;25.336;2023-02-22T04:52:40;9.18;;;3.22;;
34296;SDS011;20564;42.902;25.336;2023-02-22T04:55:08;5.55;;;1.52;;
34296;SDS011;20564;42.902;25.336;2023-02-22T04:57:36;4.45;;;1.50;;
34296;SDS011;20564;42.902;25.336;2023-02-22T05:00:04;8.05;;;3.53;;
34296;SDS011;20564;42.902;25.336;2023-02-22T05:02:33;5.22;;;1.63;;
34296;SDS011;20564;42.902;25.336;2023-02-22T05:05:04;7.03;;;2.20;;
34296;SDS011;20564;42.902;25.336;2023-02-22T05:07:35;6.38;;;2.30;;
34296;SDS011;20564;42.902;25.336;2023-02-22T05:10:05;7.85;;;1.38;;
34296;SDS011;20564;42.902;25.336;2023-02-22T05:12:32;6.40;;;2.27;;
34296;SDS011;20564;42.902;25.336;2023-02-22T05:15:14;7.93;;;2.60;;
34296;SDS011;20564;42.902;25.336;2023-02-22T05:17:53;6.60;;;2.03;;
34296;SDS011;20564;42.902;25.336;2023-02-22T05:27:01;7.97;;;2.83;;
34296;SDS011;20564;42.902;25.336;2023-02-22T05:29:47;7.07;;;2.15;;
34296;SDS011;20564;42.902;25.336;2023-02-22T05:33:19;6.82;;;1.92;;
34296;SDS011;20564;42.902;25.336;2023-02-22T05:35:46;4.35;;;1.70;;
34296;SDS011;20564;42.902;25.336;2023-02-22T05:38:36;6.68;;;1.70;;
34296;SDS011;20564;42.902;25.336;2023-02-22T05:42:08;5.95;;;2.15;;
34296;SDS011;20564;42.902;25.336;2023-02-22T05:45:39;13.70;;;3.55;;
34296;SDS011;20564;42.902;25.336;2023-02-22T05:48:35;4.88;;;2.30;;
34296;SDS011;20564;42.902;25.336;2023-02-22T05:51:38;4.45;;;2.22;;
34296;SDS011;20564;42.902;25.336;2023-02-22T05:54:51;6.32;;;2.30;;
34296;SDS011;20564;42.902;25.336;2023-02-22T05:57:18;9.82;;;3.85;;
34296;SDS011;20564;42.902;25.336;2023-02-22T06:00:15;11.65;;;4.13;;
34296;SDS011;20564;42.902;25.336;2023-02-22T06:06:34;8.48;;;3.80;;
34296;SDS011;20564;42.902;25.336;2023-02-22T06:09:02;11.02;;;4.90;;
34296;SDS011;20564;42.902;25.336;2023-02-22T06:12:18;8.88;;;3.58;;
34296;SDS011;20564;42.902;25.336;2023-02-22T06:15:28;8.80;;;3.70;;
34296;SDS011;20564;42.902;25.336;2023-02-22T06:17:59;15.00;;;3.63;;
34296;SDS011;20564;42.902;25.336;2023-02-22T06:20:29;17.17;;;5.18;;
34296;SDS011;20564;42.902;25.336;2023-02-22T06:23:02;13.57;;;6.07;;
34296;SDS011;20564;42.902;25.336;2023-02-22T06:25:44;15.32;;;5.15;;
34296;SDS011;20564;42.902;25.336;2023-02-22T06:28:35;11.75;;;4.25;;
34296;SDS011;20564;42.902;25.336;2023-02-22T06:31:08;13.40;;;4.50;;
34296;SDS011;20564;42.902;25.336;2023-02-22T06:33:35;15.48;;;5.35;;
34296;SDS011;20564;42.902;25.336;2023-02-22T06:36:11;14.68;;;5.57;;
34296;SDS011;20564;42.902;25.336;2023-02-22T06:38:40;17.40;;;5.65;;
34296;SDS011;20564;42.902;25.336;2023-02-22T06:41:07;10.27;;;4.50;;
34296;SDS011;20564;42.902;25.336;2023-02-22T06:43:53;17.40;;;4.68;;
34296;SDS011;20564;42.902;25.336;2023-02-22T06:46:26;13.93;;;5.30;;
34296;SDS011;20564;42.902;25.336;2023-02-22T06:48:53;10.07;;;4.38;;
34296;SDS011;20564;42.902;25.336;2023-02-22T06:51:20;16.70;;;5.78;;
34296;SDS011;20564;42.902;25.336;2023-02-22T06:53:48;16.35;;;6.55;;
34296;SDS011;20564;42.902;25.336;2023-02-22T06:56:15;14.25;;;6.32;;
34296;SDS011;20564;42.902;25.336;2023-02-22T06:58:42;15.32;;;6.25;;
34296;SDS011;20564;42.902;25.336;2023-02-22T07:01:39;14.18;;;6.68;;
34296;SDS011;20564;42.902;25.336;2023-02-22T07:04:25;18.27;;;5.43;;
34296;SDS011;20564;42.902;25.336;2023-02-22T07:06:52;11.43;;;4.47;;
34296;SDS011;20564;42.902;25.336;2023-02-22T07:09:22;11.95;;;4.88;;
34296;SDS011;20564;42.902;25.336;2023-02-22T07:11:49;11.65;;;4.47;;
34296;SDS011;20564;42.902;25.336;2023-02-22T07:14:19;16.98;;;6.63;;
34296;SDS011;20564;42.902;25.336;2023-02-22T07:17:00;13.00;;;3.97;;
34296;SDS011;20564;42.902;25.336;2023-02-22T07:19:51;8.25;;;3.17;;
34296;SDS011;20564;42.902;25.336;2023-02-22T07:22:37;7.28;;;2.65;;
34296;SDS011;20564;42.902;25.336;2023-02-22T07:25:32;5.57;;;2.00;;
34296;SDS011;20564;42.902;25.336;2023-02-22T07:28:04;4.85;;;1.65;;
34296;SDS011;20564;42.902;25.336;2023-02-22T07:30:43;5.05;;;1.77;;
34296;SDS011;20564;42.902;25.336;2023-02-22T07:33:16;7.55;;;3.17;;
34296;SDS011;20564;42.902;25.336;2023-02-22T07:35:47;5.22;;;1.98;;
34296;SDS011;20564;42.902;25.336;2023-02-22T07:38:16;3.05;;;1.38;;
34296;SDS011;20564;42.902;25.336;2023-02-22T07:40:54;2.90;;;1.27;;
34296;SDS011;20564;42.902;25.336;2023-02-22T07:43:33;3.80;;;1.27;;
34296;SDS011;20564;42.902;25.336;2023-02-22T07:46:38;2.35;;;0.95;;
34296;SDS011;20564;42.902;25.336;2023-02-22T07:49:05;2.40;;;1.00;;
34296;SDS011;20564;42.902;25.336;2023-02-22T07:51:35;3.15;;;1.30;;
34296;SDS011;20564;42.902;25.336;2023-02-22T07:54:03;2.03;;;1.00;;
34296;SDS011;20564;42.902;25.336;2023-02-22T07:56:32;2.58;;;1.27;;
34296;SDS011;20564;42.902;25.336;2023-02-22T07:59:02;6.57;;;1.70;;
34296;SDS011;20564;42.902;25.336;2023-02-22T08:01:38;3.80;;;1.50;;
34296;SDS011;20564;42.902;25.336;2023-02-22T08:04:07;4.18;;;1.48;;
34296;SDS011;20564;42.902;25.336;2023-02-22T08:06:56;2.33;;;0.70;;
34296;SDS011;20564;42.902;25.336;2023-02-22T08:09:23;2.53;;;1.25;;
34296;SDS011;20564;42.902;25.336;2023-02-22T08:11:58;2.58;;;1.00;;
34296;SDS011;20564;42.902;25.336;2023-02-22T08:14:24;2.33;;;1.13;;
34296;SDS011;20564;42.902;25.336;2023-02-22T08:16:51;5.15;;;1.52;;
34296;SDS011;20564;42.902;25.336;2023-02-22T08:19:21;2.35;;;0.85;;
34296;SDS011;20564;42.902;25.336;2023-02-22T08:21:51;4.00;;;1.00;;
34296;SDS011;20564;42.902;25.336;2023-02-22T08:24:24;2.90;;;1.08;;
34296;SDS011;20564;42.902;25.336;2023-02-22T08:26:51;2.17;;;0.85;;
34296;SDS011;20564;42.902;25.336;2023-02-22T08:29:21;2.53;;;1.02;;
34296;SDS011;20564;42.902;25.336;2023-02-22T08:32:06;2.50;;;0.75;;
34296;SDS011;20564;42.902;25.336;2023-02-22T08:34:39;2.08;;;1.00;;
34296;SDS011;20564;42.902;25.336;2023-02-22T08:44:56;2.53;;;1.20;;
34296;SDS011;20564;42.902;25.336;2023-02-22T08:47:32;6.68;;;2.30;;
34296;SDS011;20564;42.902;25.336;2023-02-22T08:50:24;5.72;;;2.33;;
34296;SDS011;20564;42.902;25.336;2023-02-22T08:53:21;3.47;;;1.30;;
34296;SDS011;20564;42.902;25.336;2023-02-22T08:55:49;6.82;;;1.65;;
34296;SDS011;20564;42.902;25.336;2023-02-22T08:58:50;5.28;;;1.48;;
34296;SDS011;20564;42.902;25.336;2023-02-22T09:01:20;3.55;;;1.10;;
34296;SDS011;20564;42.902;25.336;2023-02-22T09:04:02;6.78;;;1.63;;
34296;SDS011;20564;42.902;25.336;2023-02-22T09:07:14;3.10;;;0.98;;
34296;SDS011;20564;42.902;25.336;2023-02-22T09:09:25;12.35;;;4.03;;
34296;SDS011;20564;42.902;25.336;2023-02-22T09:11:57;5.35;;;1.50;;
34296;SDS011;20564;42.902;25.336;2023-02-22T09:14:36;7.15;;;2.05;;
34296;SDS011;20564;42.902;25.336;2023-02-22T09:17:10;8.07;;;2.67;;
34296;SDS011;20564;42.902;25.336;2023-02-22T09:19:42;5.72;;;1.75;;
34296;SDS011;20564;42.902;25.336;2023-02-22T09:22:13;8.70;;;1.80;;
34296;SDS011;20564;42.902;25.336;2023-02-22T09:24:43;3.58;;;1.30;;
34296;SDS011;20564;42.902;25.336;2023-02-22T09:27:16;7.20;;;2.28;;
34296;SDS011;20564;42.902;25.336;2023-02-22T09:29:47;5.63;;;1.92;;
34296;SDS011;20564;42.902;25.336;2023-02-22T09:32:18;3.78;;;1.10;;
34296;SDS011;20564;42.902;25.336;2023-02-22T09:34:46;2.33;;;1.33;;
34296;SDS011;20564;42.902;25.336;2023-02-22T09:37:21;2.30;;;0.95;;
34296;SDS011;20564;42.902;25.336;2023-02-22T09:39:51;5.72;;;1.42;;
34296;SDS011;20564;42.902;25.336;2023-02-22T09:45:06;2.47;;;1.13;;
34296;SDS011;20564;42.902;25.336;2023-02-22T09:47:45;2.55;;;1.10;;
34296;SDS011;20564;42.902;25.336;2023-02-22T09:58:58;3.63;;;1.10;;
34296;SDS011;20564;42.902;25.336;2023-02-22T10:01:38;3.92;;;1.02;;
34296;SDS011;20564;42.902;25.336;2023-02-22T10:16:33;2.92;;;1.30;;
34296;SDS011;20564;42.902;25.336;2023-02-22T10:19:15;5.78;;;1.35;;
34296;SDS011;20564;42.902;25.336;2023-02-22T10:25:04;3.20;;;1.05;;
34296;SDS011;20564;42.902;25.336;2023-02-22T10:27:40;3.42;;;0.93;;
34296;SDS011;20564;42.902;25.336;2023-02-22T10:30:30;2.60;;;1.10;;
34296;SDS011;20564;42.902;25.336;2023-02-22T10:33:09;1.73;;;0.98;;
34296;SDS011;20564;42.902;25.336;2023-02-22T10:35:53;6.75;;;1.30;;
34296;SDS011;20564;42.902;25.336;2023-02-22T10:38:22;2.85;;;0.70;;
34296;SDS011;20564;42.902;25.336;2023-02-22T10:41:36;7.30;;;1.20;;
34296;SDS011;20564;42.902;25.336;2023-02-22T10:43:49;3.92;;;1.20;;
34296;SDS011;20564;42.902;25.336;2023-02-22T10:46:26;13.25;;;2.05;;
34296;SDS011;20564;42.902;25.336;2023-02-22T10:49:01;3.40;;;1.00;;
34296;SDS011;20564;42.902;25.336;2023-02-22T10:51:35;5.03;;;1.55;;
34296;SDS011;20564;42.902;25.336;2023-02-22T10:54:25;5.75;;;1.98;;
34296;SDS011;20564;42.902;25.336;2023-02-22T10:56:59;6.43;;;2.00;;
34296;SDS011;20564;42.902;25.336;2023-02-22T10:59:36;2.95;;;0.95;;
34296;SDS011;20564;42.902;25.336;2023-02-22T11:02:30;6.78;;;2.55;;
34296;SDS011;20564;42.902;25.336;2023-02-22T11:04:59;8.45;;;2.58;;
34296;SDS011;20564;42.902;25.336;2023-02-22T11:07:30;9.40;;;3.25;;
34296;SDS011;20564;42.902;25.336;2023-02-22T11:10:06;7.85;;;1.90;;
34296;SDS011;20564;42.902;25.336;2023-02-22T11:12:38;6.60;;;1.52;;
34296;SDS011;20564;42.902;25.336;2023-02-22T11:18:02;8.43;;;2.00;;
34296;SDS011;20564;42.902;25.336;2023-02-22T11:20:36;5.78;;;1.55;;
34296;SDS011;20564;42.902;25.336;2023-02-22T11:23:08;10.52;;;3.08;;
34296;SDS011;20564;42.902;25.336;2023-02-22T11:25:39;6.18;;;1.80;;
34296;SDS011;20564;42.902;25.336;2023-02-22T11:28:10;10.75;;;3.50;;
34296;SDS011;20564;42.902;25.336;2023-02-22T11:33:25;4.43;;;1.58;;
34296;SDS011;20564;42.902;25.336;2023-02-22T11:35:55;8.23;;;1.95;;
34296;SDS011;20564;42.902;25.336;2023-02-22T11:38:59;6.68;;;2.08;;
34296;SDS011;20564;42.902;25.336;2023-02-22T11:41:31;4.80;;;1.33;;
34296;SDS011;20564;42.902;25.336;2023-02-22T11:44:12;6.40;;;1.83;;
34296;SDS011;20564;42.902;25.336;2023-02-22T11:46:54;2.28;;;0.98;;
34296;SDS011;20564;42.902;25.336;2023-02-22T11:49:44;3.65;;;1.15;;
34296;SDS011;20564;42.902;25.336;2023-02-22T11:55:06;11.35;;;4.22;;
34296;SDS011;20564;42.902;25.336;2023-02-22T12:04:21;4.05;;;1.60;;
34296;SDS011;20564;42.902;25.336;2023-02-22T12:15:28;6.82;;;2.83;;
34296;SDS011;20564;42.902;25.336;2023-02-22T12:20:58;1.55;;;0.88;;
34296;SDS011;20564;42.902;25.336;2023-02-22T12:28:14;7.22;;;1.58;;
34296;SDS011;20564;42.902;25.336;2023-02-22T12:30:51;1.70;;;0.80;;
34296;SDS011;20564;42.902;25.336;2023-02-22T12:33:48;2.65;;;1.17;;
34296;SDS011;20564;42.902;25.336;2023-02-22T12:36:29;2.17;;;0.85;;
34296;SDS011;20564;42.902;25.336;2023-02-22T12:39:13;2.13;;;1.13;;
34296;SDS011;20564;42.902;25.336;2023-02-22T12:42:55;1.92;;;0.90;;
34296;SDS011;20564;42.902;25.336;2023-02-22T12:45:31;1.17;;;0.70;;
34296;SDS011;20564;42.902;25.336;2023-02-22T12:48:28;1.80;;;0.82;;
34296;SDS011;20564;42.902;25.336;2023-02-22T12:51:13;2.25;;;1.13;;
34296;SDS011;20564;42.902;25.336;2023-02-22T12:56:54;3.28;;;1.17;;
34296;SDS011;20564;42.902;25.336;2023-02-22T12:59:25;7.37;;;2.97;;
34296;SDS011;20564;42.902;25.336;2023-02-22T13:03:16;4.35;;;1.70;;
34296;SDS011;20564;42.902;25.336;2023-02-22T13:05:43;10.65;;;5.05;;
34296;SDS011;20564;42.902;25.336;2023-02-22T13:14:32;2.60;;;1.13;;
34296;SDS011;20564;42.902;25.336;2023-02-22T13:17:33;2.33;;;0.88;;
34296;SDS011;20564;42.902;25.336;2023-02-22T13:20:56;4.90;;;2.25;;
34296;SDS011;20564;42.902;25.336;2023-02-22T13:28:28;4.18;;;2.35;;
34296;SDS011;20564;42.902;25.336;2023-02-22T13:41:47;3.92;;;1.60;;
34296;SDS011;20564;42.902;25.336;2023-02-22T13:44:43;2.17;;;1.10;;
34296;SDS011;20564;42.902;25.336;2023-02-22T13:51:43;2.13;;;0.60;;
34296;SDS011;20564;42.902;25.336;2023-02-22T13:54:16;1.67;;;1.05;;
34296;SDS011;20564;42.902;25.336;2023-02-22T13:57:23;2.28;;;1.10;;
34296;SDS011;20564;42.902;25.336;2023-02-22T14:03:30;3.03;;;1.30;;
34296;SDS011;20564;42.902;25.336;2023-02-22T14:10:20;1.73;;;0.82;;
34296;SDS011;20564;42.902;25.336;2023-02-22T14:23:53;6.95;;;1.40;;
34296;SDS011;20564;42.902;25.336;2023-02-22T14:27:01;5.05;;;1.00;;
34296;SDS011;20564;42.902;25.336;2023-02-22T14:29:56;2.40;;;0.90;;
34296;SDS011;20564;42.902;25.336;2023-02-22T14:32:33;4.72;;;1.13;;
34296;SDS011;20564;42.902;25.336;2023-02-22T14:35:53;2.87;;;1.03;;
34296;SDS011;20564;42.902;25.336;2023-02-22T14:38:26;2.22;;;0.95;;
34296;SDS011;20564;42.902;25.336;2023-02-22T14:40:57;4.72;;;1.35;;
34296;SDS011;20564;42.902;25.336;2023-02-22T14:54:34;1.83;;;0.80;;
34296;SDS011;20564;42.902;25.336;2023-02-22T14:57:14;1.65;;;0.88;;
34296;SDS011;20564;42.902;25.336;2023-02-22T14:59:58;3.53;;;0.70;;
34296;SDS011;20564;42.902;25.336;2023-02-22T15:02:57;1.23;;;0.90;;
34296;SDS011;20564;42.902;25.336;2023-02-22T15:05:32;3.50;;;0.85;;
34296;SDS011;20564;42.902;25.336;2023-02-22T15:08:07;3.65;;;1.13;;
34296;SDS011;20564;42.902;25.336;2023-02-22T15:10:42;1.42;;;0.75;;
34296;SDS011;20564;42.902;25.336;2023-02-22T15:13:28;1.23;;;0.70;;
34296;SDS011;20564;42.902;25.336;2023-02-22T15:16:02;4.10;;;1.20;;
34296;SDS011;20564;42.902;25.336;2023-02-22T15:24:03;2.85;;;1.02;;
34296;SDS011;20564;42.902;25.336;2023-02-22T15:26:40;2.33;;;0.95;;
34296;SDS011;20564;42.902;25.336;2023-02-22T15:29:37;2.17;;;0.85;;
34296;SDS011;20564;42.902;25.336;2023-02-22T15:32:29;2.95;;;1.00;;
34296;SDS011;20564;42.902;25.336;2023-02-22T15:40:39;2.60;;;0.77;;
34296;SDS011;20564;42.902;25.336;2023-02-22T15:43:16;2.15;;;0.88;;
34296;SDS011;20564;42.902;25.336;2023-02-22T15:45:49;3.78;;;1.08;;
34296;SDS011;20564;42.902;25.336;2023-02-22T15:48:17;3.90;;;1.35;;
34296;SDS011;20564;42.902;25.336;2023-02-22T15:53:46;2.20;;;1.02;;
34296;SDS011;20564;42.902;25.336;2023-02-22T15:56:28;6.72;;;1.73;;
34296;SDS011;20564;42.902;25.336;2023-02-22T15:59:16;4.10;;;1.20;;
34296;SDS011;20564;42.902;25.336;2023-02-22T16:01:46;5.03;;;1.38;;
34296;SDS011;20564;42.902;25.336;2023-02-22T16:04:18;2.92;;;1.02;;
34296;SDS011;20564;42.902;25.336;2023-02-22T16:07:01;3.08;;;1.30;;
34296;SDS011;20564;42.902;25.336;2023-02-22T16:09:32;4.25;;;1.40;;
34296;SDS011;20564;42.902;25.336;2023-02-22T16:15:15;3.00;;;1.00;;
34296;SDS011;20564;42.902;25.336;2023-02-22T16:21:22;3.38;;;1.17;;
34296;SDS011;20564;42.902;25.336;2023-02-22T16:23:53;3.45;;;0.98;;
34296;SDS011;20564;42.902;25.336;2023-02-22T16:27:00;2.47;;;0.93;;
34296;SDS011;20564;42.902;25.336;2023-02-22T16:30:16;3.80;;;1.25;;
34296;SDS011;20564;42.902;25.336;2023-02-22T16:33:20;15.18;;;6.63;;
34296;SDS011;20564;42.902;25.336;2023-02-22T16:35:48;14.52;;;4.30;;
34296;SDS011;20564;42.902;25.336;2023-02-22T16:38:23;5.25;;;1.98;;
34296;SDS011;20564;42.902;25.336;2023-02-22T16:48:22;4.97;;;1.83;;
34296;SDS011;20564;42.902;25.336;2023-02-22T16:55:41;4.63;;;1.80;;
34296;SDS011;20564;42.902;25.336;2023-02-22T16:59:09;3.67;;;1.30;;
34296;SDS011;20564;42.902;25.336;2023-02-22T17:02:16;5.18;;;1.75;;
34296;SDS011;20564;42.902;25.336;2023-02-22T17:13:48;4.88;;;2.15;;
34296;SDS011;20564;42.902;25.336;2023-02-22T17:17:15;6.00;;;1.88;;
34296;SDS011;20564;42.902;25.336;2023-02-22T17:20:05;10.90;;;3.30;;
34296;SDS011;20564;42.902;25.336;2023-02-22T17:23:39;11.25;;;1.98;;
34296;SDS011;20564;42.902;25.336;2023-02-22T17:30:10;15.88;;;7.90;;
34296;SDS011;20564;42.902;25.336;2023-02-22T17:32:42;20.58;;;9.98;;
34296;SDS011;20564;42.902;25.336;2023-02-22T17:35:46;16.98;;;7.00;;
34296;SDS011;20564;42.902;25.336;2023-02-22T17:38:40;13.07;;;4.20;;
34296;SDS011;20564;42.902;25.336;2023-02-22T17:49:51;6.50;;;2.17;;
34296;SDS011;20564;42.902;25.336;2023-02-22T17:53:08;6.25;;;2.22;;
34296;SDS011;20564;42.902;25.336;2023-02-22T17:57:00;5.38;;;2.17;;
34296;SDS011;20564;42.902;25.336;2023-02-22T18:04:22;4.97;;;2.10;;
34296;SDS011;20564;42.902;25.336;2023-02-22T18:07:32;5.28;;;2.03;;
34296;SDS011;20564;42.902;25.336;2023-02-22T18:10:09;5.70;;;2.08;;
34296;SDS011;20564;42.902;25.336;2023-02-22T18:13:14;5.63;;;2.08;;
34296;SDS011;20564;42.902;25.336;2023-02-22T18:15:45;7.88;;;3.00;;
34296;SDS011;20564;42.902;25.336;2023-02-22T18:18:14;8.52;;;2.63;;
34296;SDS011;20564;42.902;25.336;2023-02-22T18:20:48;7.72;;;2.50;;
34296;SDS011;20564;42.902;25.336;2023-02-22T18:23:40;6.95;;;2.80;;
34296;SDS011;20564;42.902;25.336;2023-02-22T18:26:16;5.68;;;2.20;;
34296;SDS011;20564;42.902;25.336;2023-02-22T18:28:56;5.43;;;2.75;;
34296;SDS011;20564;42.902;25.336;2023-02-22T18:31:38;4.85;;;2.05;;
34296;SDS011;20564;42.902;25.336;2023-02-22T18:34:13;3.97;;;1.63;;
34296;SDS011;20564;42.902;25.336;2023-02-22T18:36:43;6.03;;;1.65;;
34296;SDS011;20564;42.902;25.336;2023-02-22T18:39:10;6.05;;;2.20;;
34296;SDS011;20564;42.902;25.336;2023-02-22T18:49:59;6.50;;;2.20;;
34296;SDS011;20564;42.902;25.336;2023-02-22T18:52:42;5.20;;;2.10;;
34296;SDS011;20564;42.902;25.336;2023-02-22T18:55:41;5.65;;;2.15;;
34296;SDS011;20564;42.902;25.336;2023-02-22T18:58:51;7.28;;;2.33;;
34296;SDS011;20564;42.902;25.336;2023-02-22T19:01:40;7.35;;;2.90;;
34296;SDS011;20564;42.902;25.336;2023-02-22T19:17:11;5.70;;;2.92;;
34296;SDS011;20564;42.902;25.336;2023-02-22T19:20:29;6.50;;;2.65;;
34296;SDS011;20564;42.902;25.336;2023-02-22T19:23:30;6.75;;;2.25;;
34296;SDS011;20564;42.902;25.336;2023-02-22T19:26:03;8.80;;;3.00;;
34296;SDS011;20564;42.902;25.336;2023-02-22T19:28:35;8.23;;;3.13;;
34296;SDS011;20564;42.902;25.336;2023-02-22T19:31:12;5.07;;;2.10;;
34296;SDS011;20564;42.902;25.336;2023-02-22T19:33:47;5.53;;;2.17;;
34296;SDS011;20564;42.902;25.336;2023-02-22T19:36:18;8.43;;;3.00;;
34296;SDS011;20564;42.902;25.336;2023-02-22T19:38:54;7.15;;;2.42;;
34296;SDS011;20564;42.902;25.336;2023-02-22T19:46:01;4.97;;;2.08;;
34296;SDS011;20564;42.902;25.336;2023-02-22T19:48:51;5.63;;;2.08;;
34296;SDS011;20564;42.902;25.336;2023-02-22T19:58:13;3.72;;;1.80;;
34296;SDS011;20564;42.902;25.336;2023-02-22T20:00:52;6.57;;;2.53;;
34296;SDS011;20564;42.902;25.336;2023-02-22T20:08:07;6.97;;;2.17;;
34296;SDS011;20564;42.902;25.336;2023-02-22T20:11:10;3.28;;;1.27;;
34296;SDS011;20564;42.902;25.336;2023-02-22T20:28:41;9.65;;;2.55;;
34296;SDS011;20564;42.902;25.336;2023-02-22T20:57:11;5.13;;;2.22;;
34296;SDS011;20564;42.902;25.336;2023-02-22T21:00:55;7.75;;;2.97;;
34296;SDS011;20564;42.902;25.336;2023-02-22T21:04:27;5.78;;;1.95;;
34296;SDS011;20564;42.902;25.336;2023-02-22T21:15:19;3.25;;;1.42;;
34296;SDS011;20564;42.902;25.336;2023-02-22T21:33:25;9.80;;;2.47;;
34296;SDS011;20564;42.902;25.336;2023-02-22T21:36:39;5.00;;;2.10;;
34296;SDS011;20564;42.902;25.336;2023-02-22T21:39:19;4.93;;;1.70;;
34296;SDS011;20564;42.902;25.336;2023-02-22T21:45:01;4.30;;;1.90;;
34296;SDS011;20564;42.902;25.336;2023-02-22T21:51:28;6.32;;;2.65;;
34296;SDS011;20564;42.902;25.336;2023-02-22T22:02:44;8.00;;;1.58;;
34296;SDS011;20564;42.902;25.336;2023-02-22T22:06:07;5.47;;;2.10;;
34296;SDS011;20564;42.902;25.336;2023-02-22T22:09:24;5.13;;;1.88;;
34296;SDS011;20564;42.902;25.336;2023-02-22T22:31:14;3.90;;;1.40;;
34296;SDS011;20564;42.902;25.336;2023-02-22T22:45:34;6.72;;;1.60;;
34296;SDS011;20564;42.902;25.336;2023-02-22T22:48:35;4.97;;;1.23;;
34296;SDS011;20564;42.902;25.336;2023-02-22T22:51:31;8.68;;;1.45;;
34296;SDS011;20564;42.902;25.336;2023-02-22T22:54:14;3.83;;;1.30;;
34296;SDS011;20564;42.902;25.336;2023-02-22T22:56:50;4.10;;;1.80;;
34296;SDS011;20564;42.902;25.336;2023-02-22T23:02:51;4.10;;;1.88;;
34296;SDS011;20564;42.902;25.336;2023-02-22T23:05:53;6.22;;;2.25;;
34296;SDS011;20564;42.902;25.336;2023-02-22T23:17:46;2.45;;;1.27;;
34296;SDS011;20564;42.902;25.336;2023-02-22T23:20:32;3.78;;;1.27;;
34296;SDS011;20564;42.902;25.336;2023-02-22T23:26:45;3.25;;;1.40;;
34296;SDS011;20564;42.902;25.336;2023-02-22T23:29:16;4.72;;;1.30;;
34296;SDS011;20564;42.902;25.336;2023-02-22T23:31:54;3.20;;;1.45;;
34296;SDS011;20564;42.902;25.336;2023-02-22T23:34:24;5.43;;;1.48;;
34296;SDS011;20564;42.902;25.336;2023-02-22T23:37:59;4.28;;;1.48;;
34296;SDS011;20564;42.902;25.336;2023-02-22T23:40:51;3.13;;;1.00;;
34296;SDS011;20564;42.902;25.336;2023-02-22T23:43:40;2.28;;;1.08;;
34296;SDS011;20564;42.902;25.336;2023-02-22T23:53:46;3.72;;;1.70;;
34296;SDS011;20564;42.902;25.336;2023-02-22T23:56:41;2.35;;;1.00;;
